sensor_id;sensor_type;location;lat;lon;timestamp;pressure;altitude;pressure_sealevel;temperature;humidity
41044;BME280;51680;49.806;18.774;2023-05-03T00:02:56;98006.78;;;15.18;71.80
41044;BME280;51680;49.806;18.774;2023-05-03T00:06:08;98018.78;;;15.22;73.14
41044;BME280;51680;49.806;18.774;2023-05-03T00:09:10;98009.91;;;15.23;72.00
41044;BME280;51680;49.806;18.774;2023-05-03T00:12:12;98011.59;;;15.24;72.56
41044;BME280;51680;49.806;18.774;2023-05-03T00:15:15;98009.69;;;15.26;72.43
41044;BME280;51680;49.806;18.774;2023-05-03T00:18:17;98011.59;;;15.24;72.76
41044;BME280;51680;49.806;18.774;2023-05-03T00:21:19;98008.75;;;15.27;72.95
41044;BME280;51680;49.806;18.774;2023-05-03T00:24:20;98016.41;;;15.30;73.00
41044;BME280;51680;49.806;18.774;2023-05-03T00:27:22;98004.81;;;15.33;73.31
41044;BME280;51680;49.806;18.774;2023-05-03T00:30:25;98005.06;;;15.30;73.77
41044;BME280;51680;49.806;18.774;2023-05-03T00:33:27;98004.06;;;15.07;74.31
41044;BME280;51680;49.806;18.774;2023-05-03T00:36:29;98004.91;;;14.84;74.87
41044;BME280;51680;49.806;18.774;2023-05-03T00:39:31;98007.97;;;14.66;75.52
41044;BME280;51680;49.806;18.774;2023-05-03T00:42:34;98001.06;;;14.52;76.14
41044;BME280;51680;49.806;18.774;2023-05-03T00:45:37;97999.50;;;14.37;77.18
41044;BME280;51680;49.806;18.774;2023-05-03T00:48:39;98002.50;;;14.19;77.94
41044;BME280;51680;49.806;18.774;2023-05-03T00:51:41;98002.50;;;14.06;78.47
41044;BME280;51680;49.806;18.774;2023-05-03T00:54:43;98000.63;;;13.96;78.78
41044;BME280;51680;49.806;18.774;2023-05-03T00:57:45;97997.16;;;13.83;79.34
41044;BME280;51680;49.806;18.774;2023-05-03T01:00:48;97996.59;;;13.65;80.71
41044;BME280;51680;49.806;18.774;2023-05-03T01:03:51;97995.31;;;13.58;81.05
41044;BME280;51680;49.806;18.774;2023-05-03T01:07:02;97998.84;;;13.45;83.31
41044;BME280;51680;49.806;18.774;2023-05-03T01:10:13;97993.13;;;13.26;84.67
41044;BME280;51680;49.806;18.774;2023-05-03T01:13:29;97999.53;;;13.08;87.39
41044;BME280;51680;49.806;18.774;2023-05-03T01:16:39;98001.72;;;12.87;88.31
41044;BME280;51680;49.806;18.774;2023-05-03T01:19:48;98002.03;;;12.69;89.62
41044;BME280;51680;49.806;18.774;2023-05-03T01:22:59;98005.22;;;12.60;91.81
41044;BME280;51680;49.806;18.774;2023-05-03T01:26:15;97994.66;;;12.47;92.63
41044;BME280;51680;49.806;18.774;2023-05-03T01:29:17;98001.31;;;12.39;92.52
41044;BME280;51680;49.806;18.774;2023-05-03T01:32:25;97997.84;;;12.38;92.94
41044;BME280;51680;49.806;18.774;2023-05-03T01:35:35;97998.78;;;12.37;93.13
41044;BME280;51680;49.806;18.774;2023-05-03T01:38:37;97997.22;;;12.35;92.79
41044;BME280;51680;49.806;18.774;2023-05-03T01:41:41;97996.72;;;12.42;92.52
41044;BME280;51680;49.806;18.774;2023-05-03T01:44:44;98002.06;;;12.41;92.03
41044;BME280;51680;49.806;18.774;2023-05-03T01:47:47;98009.44;;;12.48;90.98
41044;BME280;51680;49.806;18.774;2023-05-03T01:50:49;98004.50;;;12.58;89.32
41044;BME280;51680;49.806;18.774;2023-05-03T01:53:51;97998.56;;;12.68;88.55
41044;BME280;51680;49.806;18.774;2023-05-03T01:57:12;97996.78;;;12.83;86.85
41044;BME280;51680;49.806;18.774;2023-05-03T02:00:15;98001.44;;;12.92;86.85
41044;BME280;51680;49.806;18.774;2023-05-03T02:03:17;97992.44;;;13.10;85.42
41044;BME280;51680;49.806;18.774;2023-05-03T02:06:20;97997.50;;;13.25;85.19
41044;BME280;51680;49.806;18.774;2023-05-03T02:09:21;97999.16;;;13.40;84.45
41044;BME280;51680;49.806;18.774;2023-05-03T02:12:24;97988.69;;;13.53;83.86
41044;BME280;51680;49.806;18.774;2023-05-03T02:15:45;97984.72;;;13.60;83.60
41044;BME280;51680;49.806;18.774;2023-05-03T02:18:47;97987.06;;;13.64;83.42
41044;BME280;51680;49.806;18.774;2023-05-03T02:21:48;97993.03;;;13.66;83.41
41044;BME280;51680;49.806;18.774;2023-05-03T02:24:50;97991.44;;;13.64;83.32
41044;BME280;51680;49.806;18.774;2023-05-03T02:27:53;97995.13;;;13.61;83.55
41044;BME280;51680;49.806;18.774;2023-05-03T02:30:56;97985.56;;;13.60;83.48
41044;BME280;51680;49.806;18.774;2023-05-03T02:33:58;97988.38;;;13.57;83.92
41044;BME280;51680;49.806;18.774;2023-05-03T02:37:00;97981.47;;;13.56;83.82
41044;BME280;51680;49.806;18.774;2023-05-03T02:40:04;97992.28;;;13.64;83.41
41044;BME280;51680;49.806;18.774;2023-05-03T02:43:08;97998.59;;;13.74;82.67
41044;BME280;51680;49.806;18.774;2023-05-03T02:46:10;97992.75;;;13.83;82.29
41044;BME280;51680;49.806;18.774;2023-05-03T02:49:13;98000.72;;;13.82;82.80
41044;BME280;51680;49.806;18.774;2023-05-03T02:52:15;97997.84;;;13.72;83.11
41044;BME280;51680;49.806;18.774;2023-05-03T02:55:16;98005.56;;;13.49;84.73
41044;BME280;51680;49.806;18.774;2023-05-03T02:58:21;98003.28;;;13.30;85.78
41044;BME280;51680;49.806;18.774;2023-05-03T03:01:23;98004.25;;;13.29;85.17
41044;BME280;51680;49.806;18.774;2023-05-03T03:04:25;98005.09;;;13.30;84.76
41044;BME280;51680;49.806;18.774;2023-05-03T03:07:27;98007.41;;;13.34;84.64
41044;BME280;51680;49.806;18.774;2023-05-03T03:10:31;98013.78;;;13.30;88.97
41044;BME280;51680;49.806;18.774;2023-05-03T03:13:34;98010.38;;;13.42;83.63
41044;BME280;51680;49.806;18.774;2023-05-03T03:16:39;98011.03;;;13.58;83.23
41044;BME280;51680;49.806;18.774;2023-05-03T03:19:41;98006.56;;;13.73;82.44
41044;BME280;51680;49.806;18.774;2023-05-03T03:22:42;98008.38;;;13.85;82.02
41044;BME280;51680;49.806;18.774;2023-05-03T03:25:45;98013.75;;;13.96;81.72
41044;BME280;51680;49.806;18.774;2023-05-03T03:28:50;98010.38;;;14.06;81.42
41044;BME280;51680;49.806;18.774;2023-05-03T03:31:52;98015.97;;;14.14;81.20
41044;BME280;51680;49.806;18.774;2023-05-03T03:35:13;98011.78;;;14.24;80.78
41044;BME280;51680;49.806;18.774;2023-05-03T03:38:16;98024.81;;;14.26;80.63
41044;BME280;51680;49.806;18.774;2023-05-03T03:41:28;98017.47;;;14.31;80.45
41044;BME280;51680;49.806;18.774;2023-05-03T03:44:32;98025.03;;;14.35;80.13
41044;BME280;51680;49.806;18.774;2023-05-03T03:47:34;98016.22;;;14.36;80.07
41044;BME280;51680;49.806;18.774;2023-05-03T03:50:36;98025.69;;;14.39;80.06
41044;BME280;51680;49.806;18.774;2023-05-03T03:53:39;98022.81;;;14.42;79.88
41044;BME280;51680;49.806;18.774;2023-05-03T03:56:41;98027.97;;;14.43;79.77
41044;BME280;51680;49.806;18.774;2023-05-03T03:59:45;98032.16;;;14.46;79.71
41044;BME280;51680;49.806;18.774;2023-05-03T04:02:46;98030.31;;;14.48;79.65
41044;BME280;51680;49.806;18.774;2023-05-03T04:05:51;98028.28;;;14.51;79.71
41044;BME280;51680;49.806;18.774;2023-05-03T04:08:55;98036.91;;;14.53;79.64
41044;BME280;51680;49.806;18.774;2023-05-03T04:11:57;98041.19;;;14.54;79.50
41044;BME280;51680;49.806;18.774;2023-05-03T04:15:00;98042.91;;;14.55;79.46
41044;BME280;51680;49.806;18.774;2023-05-03T04:18:03;98051.59;;;14.56;79.46
41044;BME280;51680;49.806;18.774;2023-05-03T04:21:05;98041.00;;;14.57;79.60
41044;BME280;51680;49.806;18.774;2023-05-03T04:24:08;98047.94;;;14.58;79.73
41044;BME280;51680;49.806;18.774;2023-05-03T04:27:10;98047.94;;;14.58;79.63
41044;BME280;51680;49.806;18.774;2023-05-03T04:30:15;98053.06;;;14.60;79.77
41044;BME280;51680;49.806;18.774;2023-05-03T04:33:21;98056.66;;;14.59;79.96
41044;BME280;51680;49.806;18.774;2023-05-03T04:36:25;98068.00;;;14.59;79.88
41044;BME280;51680;49.806;18.774;2023-05-03T04:39:30;98066.22;;;14.60;79.72
41044;BME280;51680;49.806;18.774;2023-05-03T04:42:31;98069.69;;;14.60;80.14
41044;BME280;51680;49.806;18.774;2023-05-03T04:45:35;98070.41;;;14.62;79.92
41044;BME280;51680;49.806;18.774;2023-05-03T04:48:39;98076.53;;;14.63;79.99
41044;BME280;51680;49.806;18.774;2023-05-03T04:51:41;98066.13;;;14.61;79.85
41044;BME280;51680;49.806;18.774;2023-05-03T04:54:44;98065.16;;;14.62;79.84
41044;BME280;51680;49.806;18.774;2023-05-03T04:57:46;98072.31;;;14.60;80.21
41044;BME280;51680;49.806;18.774;2023-05-03T05:00:50;98077.44;;;14.62;80.26
41044;BME280;51680;49.806;18.774;2023-05-03T05:03:59;98077.59;;;14.60;80.26
41044;BME280;51680;49.806;18.774;2023-05-03T05:07:07;98080.94;;;14.62;80.25
41044;BME280;51680;49.806;18.774;2023-05-03T05:10:11;98080.94;;;14.62;80.45
41044;BME280;51680;49.806;18.774;2023-05-03T05:13:14;98097.75;;;14.60;80.63
41044;BME280;51680;49.806;18.774;2023-05-03T05:16:18;98090.72;;;14.60;80.52
41044;BME280;51680;49.806;18.774;2023-05-03T05:19:25;98089.78;;;14.61;80.59
41044;BME280;51680;49.806;18.774;2023-05-03T05:22:27;98096.69;;;14.62;80.58
41044;BME280;51680;49.806;18.774;2023-05-03T05:25:32;98091.44;;;14.62;80.46
41044;BME280;51680;49.806;18.774;2023-05-03T05:28:36;98097.66;;;14.61;80.73
41044;BME280;51680;49.806;18.774;2023-05-03T05:31:39;98102.59;;;14.53;80.92
41044;BME280;51680;49.806;18.774;2023-05-03T05:34:42;98106.59;;;14.34;83.88
41044;BME280;51680;49.806;18.774;2023-05-03T05:37:45;98107.22;;;14.37;81.29
41044;BME280;51680;49.806;18.774;2023-05-03T05:40:48;98109.59;;;14.40;81.37
41044;BME280;51680;49.806;18.774;2023-05-03T05:43:52;98108.69;;;14.41;81.22
41044;BME280;51680;49.806;18.774;2023-05-03T05:46:55;98110.88;;;14.47;81.55
41044;BME280;51680;49.806;18.774;2023-05-03T05:49:58;98115.81;;;14.52;81.31
41044;BME280;51680;49.806;18.774;2023-05-03T05:53:01;98116.47;;;14.55;81.31
41044;BME280;51680;49.806;18.774;2023-05-03T05:56:07;98115.63;;;14.55;81.08
41044;BME280;51680;49.806;18.774;2023-05-03T05:59:11;98122.78;;;14.53;81.18
41044;BME280;51680;49.806;18.774;2023-05-03T06:02:15;98121.94;;;14.52;81.21
41044;BME280;51680;49.806;18.774;2023-05-03T06:05:19;98125.50;;;14.51;80.91
41044;BME280;51680;49.806;18.774;2023-05-03T06:08:20;98128.75;;;14.42;81.38
41044;BME280;51680;49.806;18.774;2023-05-03T06:11:22;98123.41;;;14.31;81.75
41044;BME280;51680;49.806;18.774;2023-05-03T06:14:24;98133.47;;;14.25;81.71
41044;BME280;51680;49.806;18.774;2023-05-03T06:17:28;98140.97;;;14.17;81.89
41044;BME280;51680;49.806;18.774;2023-05-03T06:20:30;98140.06;;;14.04;82.08
41044;BME280;51680;49.806;18.774;2023-05-03T06:23:32;98141.44;;;13.97;82.19
41044;BME280;51680;49.806;18.774;2023-05-03T06:26:35;98144.66;;;13.88;82.29
41044;BME280;51680;49.806;18.774;2023-05-03T06:29:38;98146.19;;;13.78;82.36
41044;BME280;51680;49.806;18.774;2023-05-03T06:32:41;98145.03;;;13.69;82.12
41044;BME280;51680;49.806;18.774;2023-05-03T06:35:44;98159.44;;;13.62;82.61
41044;BME280;51680;49.806;18.774;2023-05-03T06:38:46;98157.41;;;13.53;82.66
41044;BME280;51680;49.806;18.774;2023-05-03T06:41:48;98162.31;;;13.45;82.74
41044;BME280;51680;49.806;18.774;2023-05-03T06:44:51;98166.25;;;13.38;83.11
41044;BME280;51680;49.806;18.774;2023-05-03T06:47:54;98167.03;;;13.40;82.89
41044;BME280;51680;49.806;18.774;2023-05-03T06:50:56;98163.06;;;13.33;83.34
41044;BME280;51680;49.806;18.774;2023-05-03T06:53:58;98170.75;;;13.36;83.21
41044;BME280;51680;49.806;18.774;2023-05-03T06:57:01;98170.69;;;13.38;83.21
41044;BME280;51680;49.806;18.774;2023-05-03T07:00:05;98168.16;;;13.36;83.09
41044;BME280;51680;49.806;18.774;2023-05-03T07:03:08;98176.91;;;13.35;82.88
41044;BME280;51680;49.806;18.774;2023-05-03T07:06:10;98176.50;;;13.29;82.96
41044;BME280;51680;49.806;18.774;2023-05-03T07:09:11;98179.19;;;13.27;82.96
41044;BME280;51680;49.806;18.774;2023-05-03T07:12:13;98181.25;;;13.22;82.51
41044;BME280;51680;49.806;18.774;2023-05-03T07:15:15;98185.94;;;13.17;82.88
41044;BME280;51680;49.806;18.774;2023-05-03T07:18:18;98183.50;;;13.14;82.56
41044;BME280;51680;49.806;18.774;2023-05-03T07:21:20;98186.50;;;13.08;82.20
41044;BME280;51680;49.806;18.774;2023-05-03T07:24:22;98192.88;;;13.04;82.22
41044;BME280;51680;49.806;18.774;2023-05-03T07:27:25;98193.91;;;13.02;82.39
41044;BME280;51680;49.806;18.774;2023-05-03T07:30:26;98202.78;;;12.99;82.27
41044;BME280;51680;49.806;18.774;2023-05-03T07:33:32;98201.13;;;12.98;82.58
41044;BME280;51680;49.806;18.774;2023-05-03T07:36:35;98199.22;;;13.00;82.36
41044;BME280;51680;49.806;18.774;2023-05-03T07:39:37;98200.09;;;13.01;82.25
41044;BME280;51680;49.806;18.774;2023-05-03T07:42:39;98199.22;;;13.00;81.90
41044;BME280;51680;49.806;18.774;2023-05-03T07:45:41;98202.97;;;12.96;81.98
41044;BME280;51680;49.806;18.774;2023-05-03T07:48:44;98204.91;;;12.93;81.85
41044;BME280;51680;49.806;18.774;2023-05-03T07:51:46;98202.75;;;12.85;82.39
41044;BME280;51680;49.806;18.774;2023-05-03T07:54:48;98204.44;;;12.86;82.50
41044;BME280;51680;49.806;18.774;2023-05-03T07:57:49;98204.25;;;12.89;82.58
41044;BME280;51680;49.806;18.774;2023-05-03T08:00:52;98205.75;;;12.93;82.15
41044;BME280;51680;49.806;18.774;2023-05-03T08:03:55;98216.25;;;12.93;81.95
41044;BME280;51680;49.806;18.774;2023-05-03T08:06:59;98221.50;;;12.93;81.98
41044;BME280;51680;49.806;18.774;2023-05-03T08:10:01;98216.25;;;12.93;82.62
41044;BME280;51680;49.806;18.774;2023-05-03T08:13:03;98222.00;;;13.00;82.39
41044;BME280;51680;49.806;18.774;2023-05-03T08:16:06;98222.66;;;13.03;81.73
41044;BME280;51680;49.806;18.774;2023-05-03T08:19:09;98224.16;;;13.07;81.66
41044;BME280;51680;49.806;18.774;2023-05-03T08:22:11;98222.28;;;13.09;81.58
41044;BME280;51680;49.806;18.774;2023-05-03T08:25:13;98231.63;;;13.13;81.63
41044;BME280;51680;49.806;18.774;2023-05-03T08:28:16;98227.34;;;13.12;81.52
41044;BME280;51680;49.806;18.774;2023-05-03T08:31:18;98241.09;;;13.16;81.37
41044;BME280;51680;49.806;18.774;2023-05-03T08:34:21;98236.59;;;13.18;81.30
41044;BME280;51680;49.806;18.774;2023-05-03T08:37:23;98233.88;;;13.19;81.61
41044;BME280;51680;49.806;18.774;2023-05-03T08:40:26;98237.06;;;13.24;81.63
41044;BME280;51680;49.806;18.774;2023-05-03T08:43:28;98233.16;;;13.31;81.48
41044;BME280;51680;49.806;18.774;2023-05-03T08:46:32;98239.69;;;13.38;81.29
41044;BME280;51680;49.806;18.774;2023-05-03T08:49:38;98237.63;;;13.43;81.21
41044;BME280;51680;49.806;18.774;2023-05-03T08:52:42;98245.22;;;13.48;81.02
41044;BME280;51680;49.806;18.774;2023-05-03T08:55:44;98246.25;;;13.59;80.46
41044;BME280;51680;49.806;18.774;2023-05-03T08:58:46;98250.16;;;13.66;80.81
41044;BME280;51680;49.806;18.774;2023-05-03T09:01:47;98258.97;;;13.79;80.85
41044;BME280;51680;49.806;18.774;2023-05-03T09:04:51;98254.06;;;13.87;80.84
41044;BME280;51680;49.806;18.774;2023-05-03T09:07:59;98263.03;;;13.97;80.77
41044;BME280;51680;49.806;18.774;2023-05-03T09:11:01;98253.66;;;14.07;80.39
41044;BME280;51680;49.806;18.774;2023-05-03T09:14:08;98256.41;;;14.18;80.47
41044;BME280;51680;49.806;18.774;2023-05-03T09:17:14;98257.00;;;14.23;80.42
41044;BME280;51680;49.806;18.774;2023-05-03T09:20:33;98258.25;;;14.30;81.00
41044;BME280;51680;49.806;18.774;2023-05-03T09:23:36;98245.69;;;14.35;80.20
41044;BME280;51680;49.806;18.774;2023-05-03T09:26:37;98251.28;;;14.43;79.86
41044;BME280;51680;49.806;18.774;2023-05-03T09:29:40;98248.25;;;14.49;79.80
41044;BME280;51680;49.806;18.774;2023-05-03T09:32:46;98258.56;;;14.52;79.50
41044;BME280;51680;49.806;18.774;2023-05-03T09:35:57;98260.66;;;14.47;79.21
41044;BME280;51680;49.806;18.774;2023-05-03T09:39:14;98261.59;;;14.46;80.03
41044;BME280;51680;49.806;18.774;2023-05-03T09:42:17;98254.53;;;14.47;79.02
41044;BME280;51680;49.806;18.774;2023-05-03T09:45:22;98269.66;;;14.43;79.26
41044;BME280;51680;49.806;18.774;2023-05-03T09:48:24;98272.81;;;14.36;79.01
41044;BME280;51680;49.806;18.774;2023-05-03T09:51:28;98274.88;;;14.31;79.40
41044;BME280;51680;49.806;18.774;2023-05-03T09:54:31;98282.31;;;14.24;79.41
41044;BME280;51680;49.806;18.774;2023-05-03T09:57:35;98274.34;;;14.26;79.27
41044;BME280;51680;49.806;18.774;2023-05-03T10:00:39;98272.75;;;14.23;79.04
41044;BME280;51680;49.806;18.774;2023-05-03T10:03:43;98272.75;;;14.23;78.79
41044;BME280;51680;49.806;18.774;2023-05-03T10:06:48;98264.25;;;14.20;78.54
41044;BME280;51680;49.806;18.774;2023-05-03T10:09:49;98275.56;;;14.06;80.42
41044;BME280;51680;49.806;18.774;2023-05-03T10:12:52;98269.09;;;14.12;78.82
41044;BME280;51680;49.806;18.774;2023-05-03T10:15:57;98266.91;;;14.18;78.49
41044;BME280;51680;49.806;18.774;2023-05-03T10:19:06;98273.00;;;14.19;78.23
41044;BME280;51680;49.806;18.774;2023-05-03T10:22:10;98266.75;;;14.21;78.44
41044;BME280;51680;49.806;18.774;2023-05-03T10:25:12;98268.53;;;14.21;78.39
41044;BME280;51680;49.806;18.774;2023-05-03T10:28:14;98265.81;;;14.22;78.41
41044;BME280;51680;49.806;18.774;2023-05-03T10:31:44;98257.63;;;14.27;78.77
41044;BME280;51680;49.806;18.774;2023-05-03T10:34:47;98269.00;;;14.27;78.49
41044;BME280;51680;49.806;18.774;2023-05-03T10:37:50;98273.22;;;14.30;78.42
41044;BME280;51680;49.806;18.774;2023-05-03T10:40:52;98269.72;;;14.29;78.53
41044;BME280;51680;49.806;18.774;2023-05-03T10:43:55;98267.09;;;14.29;78.55
41044;BME280;51680;49.806;18.774;2023-05-03T10:47:08;98268.78;;;14.30;78.44
41044;BME280;51680;49.806;18.774;2023-05-03T10:50:26;98254.91;;;14.28;78.64
41044;BME280;51680;49.806;18.774;2023-05-03T10:53:37;98262.69;;;14.30;78.30
41044;BME280;51680;49.806;18.774;2023-05-03T10:56:47;98265.88;;;14.35;77.87
41044;BME280;51680;49.806;18.774;2023-05-03T10:59:50;98263.78;;;14.40;77.96
41044;BME280;51680;49.806;18.774;2023-05-03T11:03:08;98266.09;;;14.44;78.22
41044;BME280;51680;49.806;18.774;2023-05-03T11:06:26;98258.75;;;14.49;78.05
41044;BME280;51680;49.806;18.774;2023-05-03T11:09:33;98264.00;;;14.49;77.16
41044;BME280;51680;49.806;18.774;2023-05-03T11:12:35;98259.16;;;14.43;76.91
41044;BME280;51680;49.806;18.774;2023-05-03T11:15:37;98266.31;;;14.41;76.88
41044;BME280;51680;49.806;18.774;2023-05-03T11:18:39;98261.44;;;14.35;76.23
41044;BME280;51680;49.806;18.774;2023-05-03T11:21:41;98263.53;;;14.30;75.73
41044;BME280;51680;49.806;18.774;2023-05-03T11:24:44;98263.75;;;14.27;75.67
41044;BME280;51680;49.806;18.774;2023-05-03T11:27:46;98261.13;;;14.27;75.42
41044;BME280;51680;49.806;18.774;2023-05-03T11:30:48;98260.16;;;14.28;75.93
41044;BME280;51680;49.806;18.774;2023-05-03T11:33:50;98255.56;;;14.32;75.44
41044;BME280;51680;49.806;18.774;2023-05-03T11:36:52;98262.28;;;14.36;75.71
41044;BME280;51680;49.806;18.774;2023-05-03T11:39:55;98259.56;;;14.37;75.40
41044;BME280;51680;49.806;18.774;2023-05-03T11:42:58;98255.44;;;14.33;75.31
41044;BME280;51680;49.806;18.774;2023-05-03T11:46:00;98263.25;;;14.35;75.37
41044;BME280;51680;49.806;18.774;2023-05-03T11:49:02;98263.16;;;14.36;75.20
41044;BME280;51680;49.806;18.774;2023-05-03T11:52:04;98262.94;;;14.39;75.73
41044;BME280;51680;49.806;18.774;2023-05-03T11:55:08;98259.34;;;14.40;75.78
41044;BME280;51680;49.806;18.774;2023-05-03T11:58:12;98261.06;;;14.41;75.70
41044;BME280;51680;49.806;18.774;2023-05-03T12:01:14;98260.13;;;14.42;75.11
41044;BME280;51680;49.806;18.774;2023-05-03T12:04:16;98261.59;;;14.46;75.17
41044;BME280;51680;49.806;18.774;2023-05-03T12:07:17;98263.19;;;14.49;74.90
41044;BME280;51680;49.806;18.774;2023-05-03T12:10:21;98264.13;;;14.48;74.99
41044;BME280;51680;49.806;18.774;2023-05-03T12:13:27;98256.47;;;14.57;75.05
41044;BME280;51680;49.806;18.774;2023-05-03T12:16:45;98252.47;;;14.64;74.66
41044;BME280;51680;49.806;18.774;2023-05-03T12:19:47;98254.91;;;14.67;74.17
41044;BME280;51680;49.806;18.774;2023-05-03T12:22:50;98251.34;;;14.68;74.03
41044;BME280;51680;49.806;18.774;2023-05-03T12:25:53;98251.88;;;14.73;73.66
41044;BME280;51680;49.806;18.774;2023-05-03T12:28:56;98245.88;;;14.71;73.43
41044;BME280;51680;49.806;18.774;2023-05-03T12:31:57;98252.00;;;14.72;73.62
41044;BME280;51680;49.806;18.774;2023-05-03T12:35:02;98254.31;;;14.76;73.18
41044;BME280;51680;49.806;18.774;2023-05-03T12:38:04;98252.63;;;14.75;74.08
41044;BME280;51680;49.806;18.774;2023-05-03T12:41:09;98254.56;;;14.59;74.91
41044;BME280;51680;49.806;18.774;2023-05-03T12:44:10;98255.59;;;14.44;75.47
41044;BME280;51680;49.806;18.774;2023-05-03T12:47:12;98242.44;;;14.44;75.17
41044;BME280;51680;49.806;18.774;2023-05-03T12:50:15;98253.06;;;14.43;75.39
41044;BME280;51680;49.806;18.774;2023-05-03T12:53:17;98242.59;;;14.55;75.65
41044;BME280;51680;49.806;18.774;2023-05-03T12:56:20;98236.53;;;14.67;75.14
41044;BME280;51680;49.806;18.774;2023-05-03T12:59:21;98242.13;;;14.75;75.02
41044;BME280;51680;49.806;18.774;2023-05-03T13:02:23;98240.31;;;14.76;74.51
41044;BME280;51680;49.806;18.774;2023-05-03T13:05:25;98240.22;;;14.77;74.11
41044;BME280;51680;49.806;18.774;2023-05-03T13:08:27;98231.91;;;14.83;73.76
41044;BME280;51680;49.806;18.774;2023-05-03T13:11:30;98238.03;;;14.84;74.01
41044;BME280;51680;49.806;18.774;2023-05-03T13:14:31;98228.56;;;14.81;73.71
41044;BME280;51680;49.806;18.774;2023-05-03T13:17:33;98235.59;;;14.81;74.25
41044;BME280;51680;49.806;18.774;2023-05-03T13:20:35;98233.91;;;14.67;74.76
41044;BME280;51680;49.806;18.774;2023-05-03T13:23:38;98235.00;;;14.51;75.00
41044;BME280;51680;49.806;18.774;2023-05-03T13:26:41;98237.78;;;14.35;75.74
41044;BME280;51680;49.806;18.774;2023-05-03T13:29:43;98241.25;;;14.23;75.74
41044;BME280;51680;49.806;18.774;2023-05-03T13:32:45;98235.50;;;14.17;75.06
41044;BME280;51680;49.806;18.774;2023-05-03T13:35:46;98240.13;;;14.13;74.91
41044;BME280;51680;49.806;18.774;2023-05-03T13:38:48;98235.38;;;14.06;76.04
41044;BME280;51680;49.806;18.774;2023-05-03T13:41:52;98235.13;;;13.82;76.66
41044;BME280;51680;49.806;18.774;2023-05-03T13:44:54;98225.69;;;13.66;77.96
41044;BME280;51680;49.806;18.774;2023-05-03T13:47:56;98228.44;;;13.50;77.77
41044;BME280;51680;49.806;18.774;2023-05-03T13:50:57;98225.84;;;13.36;78.90
41044;BME280;51680;49.806;18.774;2023-05-03T13:54:00;98224.50;;;13.29;79.48
41044;BME280;51680;49.806;18.774;2023-05-03T13:57:03;98222.84;;;13.28;79.62
41044;BME280;51680;49.806;18.774;2023-05-03T14:00:06;98223.69;;;13.29;80.03
41044;BME280;51680;49.806;18.774;2023-05-03T14:03:08;98215.44;;;13.21;80.10
41044;BME280;51680;49.806;18.774;2023-05-03T14:06:11;98211.13;;;13.20;79.99
41044;BME280;51680;49.806;18.774;2023-05-03T14:09:12;98210.28;;;13.19;79.49
41044;BME280;51680;49.806;18.774;2023-05-03T14:12:16;98215.06;;;13.27;80.10
41044;BME280;51680;49.806;18.774;2023-05-03T14:15:17;98215.16;;;13.25;80.06
41044;BME280;51680;49.806;18.774;2023-05-03T14:18:19;98213.09;;;13.30;80.47
41044;BME280;51680;49.806;18.774;2023-05-03T14:21:22;98217.03;;;13.37;80.14
41044;BME280;51680;49.806;18.774;2023-05-03T14:24:24;98218.72;;;13.38;80.12
41044;BME280;51680;49.806;18.774;2023-05-03T14:27:27;98212.53;;;13.25;81.21
41044;BME280;51680;49.806;18.774;2023-05-03T14:30:30;98220.59;;;13.08;81.62
41044;BME280;51680;49.806;18.774;2023-05-03T14:33:32;98218.34;;;13.02;81.65
41044;BME280;51680;49.806;18.774;2023-05-03T14:36:35;98223.75;;;12.99;82.91
41044;BME280;51680;49.806;18.774;2023-05-03T14:39:38;98223.34;;;12.91;83.22
41044;BME280;51680;49.806;18.774;2023-05-03T14:42:41;98228.28;;;12.97;83.51
41044;BME280;51680;49.806;18.774;2023-05-03T14:45:43;98221.41;;;12.95;83.46
41044;BME280;51680;49.806;18.774;2023-05-03T14:48:46;98225.66;;;12.97;82.72
41044;BME280;51680;49.806;18.774;2023-05-03T14:51:48;98233.97;;;13.04;81.96
41044;BME280;51680;49.806;18.774;2023-05-03T14:54:49;98226.88;;;13.06;82.29
41044;BME280;51680;49.806;18.774;2023-05-03T14:57:55;98234.97;;;13.01;83.46
41044;BME280;51680;49.806;18.774;2023-05-03T15:00:56;98232.28;;;13.03;82.75
41044;BME280;51680;49.806;18.774;2023-05-03T15:03:58;98234.66;;;13.07;81.76
41044;BME280;51680;49.806;18.774;2023-05-03T15:07:01;98233.31;;;13.14;82.27
41044;BME280;51680;49.806;18.774;2023-05-03T15:10:03;98234.53;;;13.23;80.88
41044;BME280;51680;49.806;18.774;2023-05-03T15:13:07;98239.22;;;13.32;81.58
41044;BME280;51680;49.806;18.774;2023-05-03T15:16:09;98238.41;;;13.31;82.06
41044;BME280;51680;49.806;18.774;2023-05-03T15:19:11;98241.66;;;13.21;82.40
41044;BME280;51680;49.806;18.774;2023-05-03T15:22:13;98236.41;;;13.21;82.84
41044;BME280;51680;49.806;18.774;2023-05-03T15:25:15;98242.50;;;13.21;81.99
41044;BME280;51680;49.806;18.774;2023-05-03T15:28:18;98236.34;;;13.22;81.40
41044;BME280;51680;49.806;18.774;2023-05-03T15:31:20;98229.41;;;13.21;81.75
41044;BME280;51680;49.806;18.774;2023-05-03T15:34:22;98233.72;;;13.22;81.17
41044;BME280;51680;49.806;18.774;2023-05-03T15:37:32;98233.41;;;13.27;81.34
41044;BME280;51680;49.806;18.774;2023-05-03T15:40:36;98238.19;;;13.34;81.11
41044;BME280;51680;49.806;18.774;2023-05-03T15:43:39;98229.97;;;13.40;81.15
41044;BME280;51680;49.806;18.774;2023-05-03T15:46:41;98226.94;;;13.46;80.87
41044;BME280;51680;49.806;18.774;2023-05-03T15:49:43;98226.47;;;13.54;80.43
41044;BME280;51680;49.806;18.774;2023-05-03T15:52:45;98222.63;;;13.59;80.27
41044;BME280;51680;49.806;18.774;2023-05-03T15:56:06;98223.13;;;13.78;80.13
41044;BME280;51680;49.806;18.774;2023-05-03T15:59:09;98219.44;;;13.95;79.23
41044;BME280;51680;49.806;18.774;2023-05-03T16:02:14;98220.97;;;14.11;78.87